sensor_id;sensor_type;location;lat;lon;timestamp;pressure;altitude;pressure_sealevel;temperature;humidity
54022;BME280;39936;51.058;17.220;2023-06-10T00:00:54;101504.90;;;15.36;100.00
54022;BME280;39936;51.058;17.220;2023-06-10T00:04:07;101503.52;;;15.40;100.00
54022;BME280;39936;51.058;17.220;2023-06-10T00:07:22;101503.96;;;15.43;100.00
54022;BME280;39936;51.058;17.220;2023-06-10T00:11:02;101503.48;;;15.48;100.00
54022;BME280;39936;51.058;17.220;2023-06-10T00:14:32;101502.87;;;15.52;100.00
54022;BME280;39936;51.058;17.220;2023-06-10T00:18:22;101504.73;;;15.54;100.00
54022;BME280;39936;51.058;17.220;2023-06-10T00:21:50;101503.79;;;15.52;100.00
54022;BME280;39936;51.058;17.220;2023-06-10T00:25:08;101474.27;;;15.32;100.00
54022;BME280;39936;51.058;17.220;2023-06-10T00:28:37;101500.06;;;15.45;100.00
54022;BME280;39936;51.058;17.220;2023-06-10T00:32:06;101500.23;;;15.39;100.00
54022;BME280;39936;51.058;17.220;2023-06-10T00:35:35;101489.83;;;15.31;100.00
54022;BME280;39936;51.058;17.220;2023-06-10T00:38:52;101495.14;;;15.32;100.00
54022;BME280;39936;51.058;17.220;2023-06-10T00:42:43;101501.03;;;15.30;100.00
54022;BME280;39936;51.058;17.220;2023-06-10T00:46:40;101508.45;;;15.26;100.00
54022;BME280;39936;51.058;17.220;2023-06-10T00:49:57;101511.55;;;15.31;100.00
54022;BME280;39936;51.058;17.220;2023-06-10T00:53:37;101503.74;;;15.35;100.00
54022;BME280;39936;51.058;17.220;2023-06-10T00:57:07;101498.24;;;15.34;100.00
54022;BME280;39936;51.058;17.220;2023-06-10T01:00:42;101516.19;;;15.39;100.00
54022;BME280;39936;51.058;17.220;2023-06-10T01:04:11;101500.78;;;15.40;100.00
54022;BME280;39936;51.058;17.220;2023-06-10T01:11:19;101492.52;;;15.35;100.00
54022;BME280;39936;51.058;17.220;2023-06-10T01:14:56;101489.84;;;15.27;100.00
54022;BME280;39936;51.058;17.220;2023-06-10T01:18:12;101474.58;;;15.11;100.00
54022;BME280;39936;51.058;17.220;2023-06-10T01:21:30;101495.76;;;15.26;100.00
54022;BME280;39936;51.058;17.220;2023-06-10T01:25:26;101492.32;;;15.26;100.00
54022;BME280;39936;51.058;17.220;2023-06-10T01:29:30;101490.69;;;15.26;100.00
54022;BME280;39936;51.058;17.220;2023-06-10T01:32:50;101483.73;;;15.29;100.00
54022;BME280;39936;51.058;17.220;2023-06-10T01:36:12;101485.42;;;15.33;100.00
54022;BME280;39936;51.058;17.220;2023-06-10T01:39:41;101485.52;;;15.31;100.00
54022;BME280;39936;51.058;17.220;2023-06-10T01:43:28;101488.18;;;15.31;100.00
54022;BME280;39936;51.058;17.220;2023-06-10T01:46:44;101484.73;;;15.32;100.00
54022;BME280;39936;51.058;17.220;2023-06-10T01:50:21;101482.62;;;15.29;100.00
54022;BME280;39936;51.058;17.220;2023-06-10T01:53:37;101489.52;;;15.33;100.00
54022;BME280;39936;51.058;17.220;2023-06-10T01:57:21;101494.38;;;15.35;100.00
54022;BME280;39936;51.058;17.220;2023-06-10T02:00:47;101480.64;;;15.16;100.00
54022;BME280;39936;51.058;17.220;2023-06-10T02:08:04;101491.80;;;15.35;100.00
54022;BME280;39936;51.058;17.220;2023-06-10T02:11:25;101494.59;;;15.37;100.00
54022;BME280;39936;51.058;17.220;2023-06-10T02:14:49;101494.94;;;15.41;100.00
54022;BME280;39936;51.058;17.220;2023-06-10T02:18:21;101493.24;;;15.43;100.00
54022;BME280;39936;51.058;17.220;2023-06-10T02:21:33;101495.19;;;15.44;100.00
54022;BME280;39936;51.058;17.220;2023-06-10T02:24:48;101499.62;;;15.43;100.00
54022;BME280;39936;51.058;17.220;2023-06-10T02:28:15;101495.96;;;15.41;100.00
54022;BME280;39936;51.058;17.220;2023-06-10T02:31:32;101495.77;;;15.40;100.00
54022;BME280;39936;51.058;17.220;2023-06-10T02:34:47;101496.34;;;15.40;100.00
54022;BME280;39936;51.058;17.220;2023-06-10T02:38:23;101493.72;;;15.41;100.00
54022;BME280;39936;51.058;17.220;2023-06-10T02:41:36;101496.16;;;15.38;100.00
54022;BME280;39936;51.058;17.220;2023-06-10T02:44:49;101497.93;;;15.42;100.00
54022;BME280;39936;51.058;17.220;2023-06-10T02:48:06;101500.51;;;15.47;100.00
54022;BME280;39936;51.058;17.220;2023-06-10T02:51:41;101501.58;;;15.52;100.00
54022;BME280;39936;51.058;17.220;2023-06-10T02:55:23;101506.10;;;15.55;100.00
54022;BME280;39936;51.058;17.220;2023-06-10T02:58:42;101508.19;;;15.58;100.00
54022;BME280;39936;51.058;17.220;2023-06-10T03:02:41;101510.92;;;15.58;100.00
54022;BME280;39936;51.058;17.220;2023-06-10T03:06:09;101510.61;;;15.58;100.00
54022;BME280;39936;51.058;17.220;2023-06-10T03:09:24;101512.49;;;15.66;100.00
54022;BME280;39936;51.058;17.220;2023-06-10T03:13:01;101518.52;;;15.65;100.00
54022;BME280;39936;51.058;17.220;2023-06-10T03:16:17;101491.48;;;15.37;100.00
54022;BME280;39936;51.058;17.220;2023-06-10T03:19:47;101523.04;;;15.47;100.00
54022;BME280;39936;51.058;17.220;2023-06-10T03:23:05;101529.98;;;15.43;100.00
54022;BME280;39936;51.058;17.220;2023-06-10T03:30:37;101535.49;;;15.45;100.00
54022;BME280;39936;51.058;17.220;2023-06-10T03:37:38;101530.53;;;15.56;100.00
54022;BME280;39936;51.058;17.220;2023-06-10T03:40:54;101504.92;;;15.51;100.00
54022;BME280;39936;51.058;17.220;2023-06-10T03:44:07;101532.39;;;15.78;100.00
54022;BME280;39936;51.058;17.220;2023-06-10T03:48:05;101534.26;;;15.87;100.00
54022;BME280;39936;51.058;17.220;2023-06-10T03:51:31;101533.13;;;15.88;100.00
54022;BME280;39936;51.058;17.220;2023-06-10T03:58:34;101547.71;;;15.83;100.00
54022;BME280;39936;51.058;17.220;2023-06-10T04:02:12;101549.62;;;15.88;100.00
54022;BME280;39936;51.058;17.220;2023-06-10T04:05:27;101549.11;;;15.89;100.00
54022;BME280;39936;51.058;17.220;2023-06-10T04:08:54;101556.02;;;15.88;100.00
54022;BME280;39936;51.058;17.220;2023-06-10T04:12:19;101522.00;;;15.61;100.00
54022;BME280;39936;51.058;17.220;2023-06-10T04:15:34;101554.07;;;15.80;100.00
54022;BME280;39936;51.058;17.220;2023-06-10T04:18:52;101552.79;;;15.75;100.00
54022;BME280;39936;51.058;17.220;2023-06-10T04:22:08;101553.27;;;15.76;100.00
54022;BME280;39936;51.058;17.220;2023-06-10T04:26:00;101554.38;;;15.80;100.00
54022;BME280;39936;51.058;17.220;2023-06-10T04:29:24;101554.05;;;15.93;100.00
54022;BME280;39936;51.058;17.220;2023-06-10T04:32:51;101552.30;;;16.02;100.00
54022;BME280;39936;51.058;17.220;2023-06-10T04:36:05;101555.43;;;16.02;100.00
54022;BME280;39936;51.058;17.220;2023-06-10T04:39:43;101551.92;;;16.10;100.00
54022;BME280;39936;51.058;17.220;2023-06-10T04:46:48;101550.73;;;16.35;100.00
54022;BME280;39936;51.058;17.220;2023-06-10T04:50:15;101553.69;;;16.44;100.00
54022;BME280;39936;51.058;17.220;2023-06-10T04:53:54;101554.87;;;16.52;100.00
54022;BME280;39936;51.058;17.220;2023-06-10T04:57:10;101554.77;;;16.52;100.00
54022;BME280;39936;51.058;17.220;2023-06-10T05:00:54;101547.73;;;16.58;100.00
54022;BME280;39936;51.058;17.220;2023-06-10T05:04:18;101558.27;;;16.64;100.00
54022;BME280;39936;51.058;17.220;2023-06-10T05:08:18;101561.00;;;16.58;100.00
54022;BME280;39936;51.058;17.220;2023-06-10T05:11:45;101566.34;;;16.44;100.00
54022;BME280;39936;51.058;17.220;2023-06-10T05:15:10;101566.59;;;16.33;100.00
54022;BME280;39936;51.058;17.220;2023-06-10T05:18:23;101574.32;;;16.38;100.00
54022;BME280;39936;51.058;17.220;2023-06-10T05:25:31;101577.74;;;16.53;100.00
54022;BME280;39936;51.058;17.220;2023-06-10T05:28:58;101581.88;;;16.62;100.00
54022;BME280;39936;51.058;17.220;2023-06-10T05:32:11;101583.90;;;16.78;100.00
54022;BME280;39936;51.058;17.220;2023-06-10T05:35:30;101582.59;;;16.94;100.00
54022;BME280;39936;51.058;17.220;2023-06-10T05:42:51;101574.23;;;17.30;100.00
54022;BME280;39936;51.058;17.220;2023-06-10T05:46:08;101585.43;;;17.45;100.00
54022;BME280;39936;51.058;17.220;2023-06-10T05:49:29;101592.48;;;17.54;100.00
54022;BME280;39936;51.058;17.220;2023-06-10T05:52:50;101593.66;;;17.55;100.00
54022;BME280;39936;51.058;17.220;2023-06-10T05:56:08;101599.46;;;17.57;100.00
54022;BME280;39936;51.058;17.220;2023-06-10T05:59:21;101603.53;;;17.57;100.00
54022;BME280;39936;51.058;17.220;2023-06-10T06:03:09;101602.19;;;17.71;100.00
54022;BME280;39936;51.058;17.220;2023-06-10T06:06:34;101605.42;;;17.83;100.00
54022;BME280;39936;51.058;17.220;2023-06-10T06:10:18;101608.06;;;17.84;100.00
54022;BME280;39936;51.058;17.220;2023-06-10T06:13:32;101607.54;;;17.81;100.00
54022;BME280;39936;51.058;17.220;2023-06-10T06:17:08;101609.88;;;17.73;100.00
54022;BME280;39936;51.058;17.220;2023-06-10T06:20:55;101599.22;;;17.65;100.00
54022;BME280;39936;51.058;17.220;2023-06-10T06:24:36;101605.91;;;17.99;100.00
54022;BME280;39936;51.058;17.220;2023-06-10T06:27:53;101587.64;;;17.83;100.00
54022;BME280;39936;51.058;17.220;2023-06-10T06:31:08;101608.72;;;17.96;100.00
54022;BME280;39936;51.058;17.220;2023-06-10T06:34:26;101606.99;;;18.17;100.00
54022;BME280;39936;51.058;17.220;2023-06-10T06:37:43;101605.07;;;18.40;100.00
54022;BME280;39936;51.058;17.220;2023-06-10T06:41:37;101609.74;;;18.25;100.00
54022;BME280;39936;51.058;17.220;2023-06-10T06:48:43;101617.44;;;18.24;100.00
54022;BME280;39936;51.058;17.220;2023-06-10T06:55:53;101631.51;;;18.19;100.00
54022;BME280;39936;51.058;17.220;2023-06-10T06:59:26;101637.13;;;18.26;100.00
54022;BME280;39936;51.058;17.220;2023-06-10T07:02:43;101638.09;;;18.34;100.00
54022;BME280;39936;51.058;17.220;2023-06-10T07:05:57;101642.16;;;18.47;100.00
54022;BME280;39936;51.058;17.220;2023-06-10T07:09:49;101647.86;;;18.52;100.00
54022;BME280;39936;51.058;17.220;2023-06-10T07:13:10;101647.40;;;18.56;100.00
54022;BME280;39936;51.058;17.220;2023-06-10T07:16:27;101646.77;;;18.53;100.00
54022;BME280;39936;51.058;17.220;2023-06-10T07:19:45;101646.16;;;18.65;100.00
54022;BME280;39936;51.058;17.220;2023-06-10T07:23:43;101649.59;;;18.61;100.00
54022;BME280;39936;51.058;17.220;2023-06-10T07:27:15;101649.63;;;18.67;100.00
54022;BME280;39936;51.058;17.220;2023-06-10T07:30:37;101643.37;;;18.56;100.00
54022;BME280;39936;51.058;17.220;2023-06-10T07:37:52;101651.75;;;18.77;100.00
54022;BME280;39936;51.058;17.220;2023-06-10T07:41:18;101657.20;;;18.79;100.00
54022;BME280;39936;51.058;17.220;2023-06-10T07:44:49;101656.16;;;18.97;100.00
54022;BME280;39936;51.058;17.220;2023-06-10T07:48:19;101653.38;;;19.00;100.00
54022;BME280;39936;51.058;17.220;2023-06-10T07:51:57;101657.69;;;19.06;100.00
54022;BME280;39936;51.058;17.220;2023-06-10T07:55:26;101627.74;;;18.95;100.00
54022;BME280;39936;51.058;17.220;2023-06-10T07:58:49;101643.83;;;19.06;98.93
54022;BME280;39936;51.058;17.220;2023-06-10T08:02:14;101655.94;;;19.31;98.31
54022;BME280;39936;51.058;17.220;2023-06-10T08:06:07;101659.18;;;19.47;96.60
54022;BME280;39936;51.058;17.220;2023-06-10T08:09:29;101659.91;;;19.40;95.83
54022;BME280;39936;51.058;17.220;2023-06-10T08:12:50;101664.47;;;19.38;97.53
54022;BME280;39936;51.058;17.220;2023-06-10T08:16:54;101661.27;;;19.52;97.00
54022;BME280;39936;51.058;17.220;2023-06-10T08:20:25;101658.40;;;20.02;98.49
54022;BME280;39936;51.058;17.220;2023-06-10T08:23:45;101658.43;;;20.12;92.08
54022;BME280;39936;51.058;17.220;2023-06-10T08:27:08;101658.79;;;20.28;91.12
54022;BME280;39936;51.058;17.220;2023-06-10T08:30:40;101652.52;;;20.30;88.81
54022;BME280;39936;51.058;17.220;2023-06-10T08:34:03;101659.02;;;20.48;90.94
54022;BME280;39936;51.058;17.220;2023-06-10T08:37:29;101659.23;;;20.69;85.68
54022;BME280;39936;51.058;17.220;2023-06-10T08:41:10;101662.52;;;20.80;86.09
54022;BME280;39936;51.058;17.220;2023-06-10T08:44:30;101638.17;;;20.59;85.47
54022;BME280;39936;51.058;17.220;2023-06-10T08:47:50;101647.34;;;20.76;82.91
54022;BME280;39936;51.058;17.220;2023-06-10T08:51:31;101669.04;;;21.27;84.96
54022;BME280;39936;51.058;17.220;2023-06-10T08:54:57;101679.58;;;21.39;82.08
54022;BME280;39936;51.058;17.220;2023-06-10T08:58:18;101656.91;;;20.85;81.98
54022;BME280;39936;51.058;17.220;2023-06-10T09:01:36;101679.62;;;21.05;76.13
54022;BME280;39936;51.058;17.220;2023-06-10T09:05:09;101669.31;;;21.03;80.81
54022;BME280;39936;51.058;17.220;2023-06-10T09:08:29;101670.27;;;21.06;78.27
54022;BME280;39936;51.058;17.220;2023-06-10T09:11:43;101675.76;;;21.30;81.02
54022;BME280;39936;51.058;17.220;2023-06-10T09:15:01;101675.52;;;21.20;77.67
54022;BME280;39936;51.058;17.220;2023-06-10T09:19:01;101671.61;;;21.41;77.86
54022;BME280;39936;51.058;17.220;2023-06-10T09:22:38;101664.49;;;21.67;76.92
54022;BME280;39936;51.058;17.220;2023-06-10T09:26:09;101664.45;;;21.75;75.04
54022;BME280;39936;51.058;17.220;2023-06-10T09:29:53;101636.69;;;21.90;78.14
54022;BME280;39936;51.058;17.220;2023-06-10T09:33:38;101658.00;;;22.33;76.41
54022;BME280;39936;51.058;17.220;2023-06-10T09:36:58;101648.39;;;22.12;74.19
54022;BME280;39936;51.058;17.220;2023-06-10T09:40:25;101654.09;;;22.44;77.11
54022;BME280;39936;51.058;17.220;2023-06-10T09:44:15;101648.06;;;22.48;71.90
54022;BME280;39936;51.058;17.220;2023-06-10T09:48:07;101644.77;;;22.62;73.92
54022;BME280;39936;51.058;17.220;2023-06-10T09:51:34;101620.04;;;23.04;74.44
54022;BME280;39936;51.058;17.220;2023-06-10T09:55:03;101645.91;;;23.09;72.68
54022;BME280;39936;51.058;17.220;2023-06-10T09:58:38;101645.54;;;22.74;71.08
54022;BME280;39936;51.058;17.220;2023-06-10T10:06:49;101603.02;;;23.18;70.86
54022;BME280;39936;51.058;17.220;2023-06-10T10:10:28;101626.95;;;23.66;66.66
54022;BME280;39936;51.058;17.220;2023-06-10T10:14:07;101611.65;;;23.76;68.23
54022;BME280;39936;51.058;17.220;2023-06-10T10:18:07;101598.66;;;24.10;68.58
54022;BME280;39936;51.058;17.220;2023-06-10T10:21:59;101586.23;;;24.41;63.86
54022;BME280;39936;51.058;17.220;2023-06-10T10:25:28;101583.94;;;24.60;60.95
54022;BME280;39936;51.058;17.220;2023-06-10T10:33:40;101584.84;;;24.83;62.07
54022;BME280;39936;51.058;17.220;2023-06-10T10:37:09;101579.80;;;24.92;60.70
54022;BME280;39936;51.058;17.220;2023-06-10T10:40:53;101552.05;;;24.59;63.84
54022;BME280;39936;51.058;17.220;2023-06-10T10:44:30;101573.93;;;24.29;61.89
54022;BME280;39936;51.058;17.220;2023-06-10T10:48:07;101578.13;;;23.97;63.14
54022;BME280;39936;51.058;17.220;2023-06-10T10:51:33;101578.70;;;23.28;67.42
54022;BME280;39936;51.058;17.220;2023-06-10T10:54:57;101566.02;;;22.95;68.61
54022;BME280;39936;51.058;17.220;2023-06-10T10:58:27;101578.19;;;22.81;64.13
54022;BME280;39936;51.058;17.220;2023-06-10T11:06:19;101563.00;;;22.85;66.04
54022;BME280;39936;51.058;17.220;2023-06-10T11:09:33;101578.16;;;23.00;64.25
54022;BME280;39936;51.058;17.220;2023-06-10T11:13:13;101570.92;;;23.10;65.39
54022;BME280;39936;51.058;17.220;2023-06-10T11:16:27;101544.56;;;23.13;64.99
54022;BME280;39936;51.058;17.220;2023-06-10T11:19:45;101539.62;;;23.17;65.89
54022;BME280;39936;51.058;17.220;2023-06-10T11:23:04;101564.76;;;23.21;65.79
54022;BME280;39936;51.058;17.220;2023-06-10T11:26:44;101562.68;;;23.20;66.20
54022;BME280;39936;51.058;17.220;2023-06-10T11:35:05;101565.45;;;23.59;68.53
54022;BME280;39936;51.058;17.220;2023-06-10T11:39:00;101562.26;;;24.04;68.74
54022;BME280;39936;51.058;17.220;2023-06-10T11:42:23;101566.09;;;24.10;67.48
54022;BME280;39936;51.058;17.220;2023-06-10T11:46:19;101572.09;;;24.22;66.85
54022;BME280;39936;51.058;17.220;2023-06-10T11:49:44;101570.04;;;24.27;67.11
54022;BME280;39936;51.058;17.220;2023-06-10T11:53:04;101571.53;;;23.97;67.64
54022;BME280;39936;51.058;17.220;2023-06-10T11:56:49;101572.34;;;23.80;69.62
54022;BME280;39936;51.058;17.220;2023-06-10T12:00:11;101568.55;;;23.63;69.98
54022;BME280;39936;51.058;17.220;2023-06-10T12:08:17;101545.59;;;23.27;71.95
54022;BME280;39936;51.058;17.220;2023-06-10T12:11:35;101564.04;;;23.32;71.20
54022;BME280;39936;51.058;17.220;2023-06-10T12:14:58;101546.07;;;23.45;73.03
54022;BME280;39936;51.058;17.220;2023-06-10T12:19:02;101554.63;;;23.78;73.24
54022;BME280;39936;51.058;17.220;2023-06-10T12:24:27;101551.97;;;24.15;69.33
54022;BME280;39936;51.058;17.220;2023-06-10T12:32:02;101537.74;;;24.74;63.43
54022;BME280;39936;51.058;17.220;2023-06-10T12:35:33;101531.95;;;24.50;59.02
54022;BME280;39936;51.058;17.220;2023-06-10T12:43:40;101517.15;;;24.93;51.69
54022;BME280;39936;51.058;17.220;2023-06-10T12:46:58;101520.95;;;25.05;46.77
54022;BME280;39936;51.058;17.220;2023-06-10T12:50:37;101526.08;;;25.18;44.24
54022;BME280;39936;51.058;17.220;2023-06-10T12:54:07;101514.74;;;25.25;44.64
54022;BME280;39936;51.058;17.220;2023-06-10T12:57:50;101514.95;;;25.37;41.90
54022;BME280;39936;51.058;17.220;2023-06-10T13:01:56;101516.05;;;25.62;41.30
54022;BME280;39936;51.058;17.220;2023-06-10T13:05:51;101483.16;;;25.49;39.37
54022;BME280;39936;51.058;17.220;2023-06-10T13:09:36;101514.15;;;25.68;39.68
54022;BME280;39936;51.058;17.220;2023-06-10T13:17:20;101517.27;;;25.30;39.13
54022;BME280;39936;51.058;17.220;2023-06-10T13:21:19;101520.30;;;25.53;39.42
54022;BME280;39936;51.058;17.220;2023-06-10T13:25:00;101508.77;;;25.57;40.18
54022;BME280;39936;51.058;17.220;2023-06-10T13:28:22;101516.10;;;25.55;38.74
54022;BME280;39936;51.058;17.220;2023-06-10T13:32:08;101515.51;;;25.53;38.61
54022;BME280;39936;51.058;17.220;2023-06-10T13:35:33;101514.45;;;25.58;38.95
54022;BME280;39936;51.058;17.220;2023-06-10T13:39:20;101518.47;;;25.43;36.07
54022;BME280;39936;51.058;17.220;2023-06-10T13:42:49;101519.25;;;25.26;35.97
54022;BME280;39936;51.058;17.220;2023-06-10T13:46:25;101540.22;;;25.35;35.12
54022;BME280;39936;51.058;17.220;2023-06-10T13:50:31;101533.30;;;25.32;35.85
54022;BME280;39936;51.058;17.220;2023-06-10T13:53:56;101532.57;;;25.31;34.01
54022;BME280;39936;51.058;17.220;2023-06-10T13:57:36;101488.95;;;25.14;35.14
54022;BME280;39936;51.058;17.220;2023-06-10T14:01:05;101530.03;;;25.34;34.79
54022;BME280;39936;51.058;17.220;2023-06-10T14:04:54;101522.97;;;25.32;35.34
54022;BME280;39936;51.058;17.220;2023-06-10T14:08:39;101531.77;;;25.35;34.52
54022;BME280;39936;51.058;17.220;2023-06-10T14:12:03;101521.06;;;25.24;35.08
54022;BME280;39936;51.058;17.220;2023-06-10T14:15:24;101530.21;;;25.22;32.72
54022;BME280;39936;51.058;17.220;2023-06-10T14:19:10;101532.41;;;25.25;31.55
54022;BME280;39936;51.058;17.220;2023-06-10T14:27:39;101522.91;;;25.42;32.72
54022;BME280;39936;51.058;17.220;2023-06-10T14:31:42;101511.24;;;25.42;33.85
54022;BME280;39936;51.058;17.220;2023-06-10T14:36:02;101517.95;;;25.58;34.13
54022;BME280;39936;51.058;17.220;2023-06-10T14:39:27;101514.70;;;25.53;32.95
54022;BME280;39936;51.058;17.220;2023-06-10T14:43:43;101524.11;;;25.40;30.86
54022;BME280;39936;51.058;17.220;2023-06-10T14:47:07;101514.14;;;25.19;31.99
54022;BME280;39936;51.058;17.220;2023-06-10T14:51:09;101510.40;;;25.21;34.03
54022;BME280;39936;51.058;17.220;2023-06-10T14:54:33;101520.02;;;25.20;33.08
54022;BME280;39936;51.058;17.220;2023-06-10T14:58:19;101513.78;;;25.38;35.68
54022;BME280;39936;51.058;17.220;2023-06-10T15:01:51;101501.47;;;25.36;32.15
54022;BME280;39936;51.058;17.220;2023-06-10T15:05:11;101518.61;;;25.26;32.80
54022;BME280;39936;51.058;17.220;2023-06-10T15:08:30;101515.37;;;25.14;33.19
54022;BME280;39936;51.058;17.220;2023-06-10T15:12:03;101516.88;;;25.16;33.37
54022;BME280;39936;51.058;17.220;2023-06-10T15:15:36;101497.62;;;24.99;33.32
54022;BME280;39936;51.058;17.220;2023-06-10T15:19:15;101527.76;;;25.10;33.05
54022;BME280;39936;51.058;17.220;2023-06-10T15:22:35;101525.79;;;25.11;33.51
54022;BME280;39936;51.058;17.220;2023-06-10T15:26:07;101524.73;;;25.15;33.37
54022;BME280;39936;51.058;17.220;2023-06-10T15:30:02;101527.08;;;25.28;34.70
54022;BME280;39936;51.058;17.220;2023-06-10T15:33:43;101528.99;;;25.31;35.12
54022;BME280;39936;51.058;17.220;2023-06-10T15:37:15;101531.50;;;25.32;34.71
54022;BME280;39936;51.058;17.220;2023-06-10T15:41:34;101533.31;;;25.20;35.01
54022;BME280;39936;51.058;17.220;2023-06-10T15:45:38;101532.38;;;25.17;34.48
54022;BME280;39936;51.058;17.220;2023-06-10T15:49:24;101537.39;;;25.20;34.69
54022;BME280;39936;51.058;17.220;2023-06-10T15:53:34;101531.45;;;25.20;35.63
54022;BME280;39936;51.058;17.220;2023-06-10T15:57:30;101534.13;;;25.09;33.13
54022;BME280;39936;51.058;17.220;2023-06-10T16:01:03;101514.41;;;24.85;33.48
54022;BME280;39936;51.058;17.220;2023-06-10T16:04:41;101539.38;;;24.94;33.49
54022;BME280;39936;51.058;17.220;2023-06-10T16:08:01;101532.54;;;24.88;32.27
54022;BME280;39936;51.058;17.220;2023-06-10T16:11:26;101544.09;;;24.91;32.24
54022;BME280;39936;51.058;17.220;2023-06-10T16:15:36;101540.48;;;24.91;32.95
54022;BME280;39936;51.058;17.220;2023-06-10T16:19:25;101543.16;;;24.90;32.55
54022;BME280;39936;51.058;17.220;2023-06-10T16:22:42;101539.35;;;24.86;32.40
54022;BME280;39936;51.058;17.220;2023-06-10T16:26:38;101538.52;;;24.91;33.31
54022;BME280;39936;51.058;17.220;2023-06-10T16:30:01;101545.45;;;24.83;31.77
54022;BME280;39936;51.058;17.220;2023-06-10T16:33:35;101538.78;;;24.84;33.16
54022;BME280;39936;51.058;17.220;2023-06-10T16:37:39;101539.45;;;24.83;33.65
54022;BME280;39936;51.058;17.220;2023-06-10T16:40:57;101539.90;;;24.70;33.08
54022;BME280;39936;51.058;17.220;2023-06-10T16:44:17;101539.63;;;24.64;33.78
54022;BME280;39936;51.058;17.220;2023-06-10T16:47:34;101541.77;;;24.70;33.59
54022;BME280;39936;51.058;17.220;2023-06-10T16:51:11;101541.38;;;24.59;32.80
54022;BME280;39936;51.058;17.220;2023-06-10T16:54:27;101539.34;;;24.50;32.72
54022;BME280;39936;51.058;17.220;2023-06-10T16:57:46;101552.45;;;24.47;32.82
54022;BME280;39936;51.058;17.220;2023-06-10T17:01:20;101522.28;;;24.22;33.90
54022;BME280;39936;51.058;17.220;2023-06-10T17:04:37;101551.73;;;24.29;33.83
54022;BME280;39936;51.058;17.220;2023-06-10T17:08:08;101558.73;;;24.21;34.83
54022;BME280;39936;51.058;17.220;2023-06-10T17:11:35;101563.15;;;24.07;33.94
54022;BME280;39936;51.058;17.220;2023-06-10T17:14:52;101566.15;;;23.95;34.53
54022;BME280;39936;51.058;17.220;2023-06-10T17:18:23;101570.36;;;23.78;35.32
54022;BME280;39936;51.058;17.220;2023-06-10T17:22:25;101570.76;;;23.65;36.53
54022;BME280;39936;51.058;17.220;2023-06-10T17:25:37;101576.53;;;23.67;37.00
54022;BME280;39936;51.058;17.220;2023-06-10T17:28:52;101577.94;;;23.65;36.98
54022;BME280;39936;51.058;17.220;2023-06-10T17:32:10;101585.16;;;23.66;36.76
54022;BME280;39936;51.058;17.220;2023-06-10T17:36:02;101587.91;;;23.62;38.15
54022;BME280;39936;51.058;17.220;2023-06-10T17:39:48;101600.64;;;23.53;38.63
54022;BME280;39936;51.058;17.220;2023-06-10T17:43:13;101601.67;;;23.47;38.52
54022;BME280;39936;51.058;17.220;2023-06-10T17:46:46;101606.09;;;23.39;38.90
54022;BME280;39936;51.058;17.220;2023-06-10T17:50:22;101608.25;;;23.36;38.69
54022;BME280;39936;51.058;17.220;2023-06-10T17:53:45;101611.16;;;23.23;38.70
54022;BME280;39936;51.058;17.220;2023-06-10T17:57:33;101622.34;;;23.02;39.84
54022;BME280;39936;51.058;17.220;2023-06-10T18:01:10;101626.09;;;22.92;39.41
54022;BME280;39936;51.058;17.220;2023-06-10T18:04:49;101631.09;;;22.91;38.73
54022;BME280;39936;51.058;17.220;2023-06-10T18:08:10;101633.48;;;22.89;38.97
54022;BME280;39936;51.058;17.220;2023-06-10T18:11:26;101631.15;;;22.84;39.54
54022;BME280;39936;51.058;17.220;2023-06-10T18:14:41;101632.91;;;22.69;39.68
54022;BME280;39936;51.058;17.220;2023-06-10T18:18:11;101639.54;;;22.48;40.85
54022;BME280;39936;51.058;17.220;2023-06-10T18:21:25;101624.22;;;22.20;40.92
54022;BME280;39936;51.058;17.220;2023-06-10T18:24:48;101649.92;;;22.06;42.41
54022;BME280;39936;51.058;17.220;2023-06-10T18:28:39;101652.26;;;21.94;42.22
54022;BME280;39936;51.058;17.220;2023-06-10T18:35:55;101655.30;;;21.85;42.80
54022;BME280;39936;51.058;17.220;2023-06-10T18:39:15;101661.78;;;21.68;42.96
54022;BME280;39936;51.058;17.220;2023-06-10T18:42:55;101663.91;;;21.58;43.15
54022;BME280;39936;51.058;17.220;2023-06-10T18:46:15;101668.15;;;21.37;44.85
54022;BME280;39936;51.058;17.220;2023-06-10T18:50:24;101675.74;;;21.15;44.83
54022;BME280;39936;51.058;17.220;2023-06-10T18:53:41;101671.23;;;20.81;45.19
54022;BME280;39936;51.058;17.220;2023-06-10T18:57:04;101686.97;;;20.67;46.07
54022;BME280;39936;51.058;17.220;2023-06-10T19:00:43;101685.92;;;20.47;46.73
54022;BME280;39936;51.058;17.220;2023-06-10T19:03:56;101692.96;;;20.34;46.46
54022;BME280;39936;51.058;17.220;2023-06-10T19:08:08;101702.80;;;20.16;47.09
54022;BME280;39936;51.058;17.220;2023-06-10T19:11:31;101709.10;;;19.88;48.58
54022;BME280;39936;51.058;17.220;2023-06-10T19:14:53;101710.71;;;19.54;49.44
54022;BME280;39936;51.058;17.220;2023-06-10T19:18:09;101716.48;;;19.49;48.71
54022;BME280;39936;51.058;17.220;2023-06-10T19:21:24;101725.18;;;19.44;48.60
54022;BME280;39936;51.058;17.220;2023-06-10T19:24:41;101730.03;;;19.34;48.62
54022;BME280;39936;51.058;17.220;2023-06-10T19:28:09;101737.74;;;19.20;48.91
54022;BME280;39936;51.058;17.220;2023-06-10T19:31:24;101739.80;;;19.02;48.65